Time;durP1;ratioP1;P1;durP2;ratioP2;P2;SDS_P1;SDS_P2;PMS_P1;PMS_P2;Temp;Humidity;BMP_temperature;BMP_pressure;BME280_temperature;BME280_humidity;BME280_pressure;Samples;Min_cycle;Max_cycle;Signal;HPM_P1;HPM_P2
2023/04/20 00:07:45;;;;;;;;;;;;;;;10.17;57.96;102509.50;20795596;28;19979;-56
2023/04/20 00:18:06;;;;;;;;;;;;;;;10.17;56.93;102452.59;20794057;28;19971;-54
2023/04/20 00:28:28;;;;;;;;;;;;;;;10.19;57.12;102431.91;20789310;28;19925;-56
2023/04/20 00:38:50;;;;;;;;;;;;;;;10.22;56.10;102439.66;20807293;28;19925;-56
2023/04/20 00:49:11;;;;;;;;;;;;;;;10.21;56.24;102418.09;20774835;28;19983;-56
2023/04/20 00:59:32;;;;;;;;;;;;;;;10.25;57.13;102404.28;20791308;28;19925;-56
2023/04/20 01:09:55;;;;;;;;;;;;;;;10.22;57.14;102386.19;20791937;28;20856;-55
2023/04/20 01:20:16;;;;;;;;;;;;;;;10.19;58.32;102377.56;20789754;28;20530;-56
2023/04/20 01:30:38;;;;;;;;;;;;;;;10.12;58.21;102366.41;20787581;28;20258;-56
2023/04/20 01:41:00;;;;;;;;;;;;;;;10.06;59.46;102345.69;20789741;28;20246;-55
2023/04/20 01:51:21;;;;;;;;;;;;;;;9.97;60.70;102345.72;20799005;28;20515;-57
2023/04/20 02:01:43;;;;;;;;;;;;;;;9.89;61.30;102334.53;20807651;28;20365;-56
2023/04/20 02:12:04;;;;;;;;;;;;;;;9.80;61.99;102312.16;20797611;28;20345;-55
2023/04/20 02:22:26;;;;;;;;;;;;;;;9.62;63.67;102290.66;20786124;28;20062;-56
2023/04/20 02:32:47;;;;;;;;;;;;;;;9.56;66.28;102311.38;20789037;28;19929;-56
2023/04/20 02:43:09;;;;;;;;;;;;;;;9.48;64.84;102315.69;20789179;28;19925;-56
2023/04/20 02:53:30;;;;;;;;;;;;;;;9.45;65.69;102305.38;20803814;28;19925;-55
2023/04/20 03:03:52;;;;;;;;;;;;;;;9.37;65.27;102300.22;20804168;28;19925;-56
2023/04/20 03:14:14;;;;;;;;;;;;;;;9.29;64.79;102295.88;20800917;28;19925;-57
2023/04/20 03:24:35;;;;;;;;;;;;;;;9.29;65.54;102285.56;20797030;28;20439;-57
2023/04/20 03:34:56;;;;;;;;;;;;;;;9.25;65.42;102263.22;20800411;28;20018;-57
2023/04/20 03:45:18;;;;;;;;;;;;;;;9.25;64.79;102278.72;20788729;28;19971;-57
2023/04/20 03:55:40;;;;;;;;;;;;;;;9.23;64.25;102267.50;20795135;28;19979;-57
2023/04/20 04:06:02;;;;;;;;;;;;;;;9.22;65.29;102276.09;20794428;28;19985;-57
2023/04/20 04:16:23;;;;;;;;;;;;;;;9.14;65.45;102269.22;20799129;28;19952;-55
2023/04/20 04:26:45;;;;;;;;;;;;;;;9.10;64.41;102275.25;20797373;28;19960;-56
2023/04/20 04:37:07;;;;;;;;;;;;;;;9.02;65.82;102279.59;20790382;28;19994;-55
2023/04/20 04:47:28;;;;;;;;;;;;;;;8.80;69.29;102275.28;20794799;28;19925;-55
2023/04/20 04:57:50;;;;;;;;;;;;;;;8.67;74.04;102283.00;20782911;28;20364;-56
2023/04/20 05:08:11;;;;;;;;;;;;;;;8.44;74.00;102295.84;20801713;28;20010;-56
2023/04/20 05:18:33;;;;;;;;;;;;;;;8.15;76.49;102303.47;20813371;28;20001;-56
2023/04/20 05:28:54;;;;;;;;;;;;;;;8.08;78.11;102306.00;20812107;28;19988;-56
2023/04/20 05:39:16;;;;;;;;;;;;;;;8.02;81.13;102309.44;20811055;28;19925;-55
2023/04/20 05:49:38;;;;;;;;;;;;;;;8.05;84.08;102316.31;20810379;28;19941;-56
2023/04/20 06:00:02;;;;;;;;;;;;;;;8.01;80.18;102305.13;20797618;28;19956;-56
2023/04/20 06:10:25;;;;;;;;;;;;;;;7.96;82.10;102303.41;20805549;28;19979;-56
2023/04/20 06:20:46;;;;;;;;;;;;;;;7.92;82.53;102309.38;20805661;28;19925;-56
2023/04/20 06:31:08;;;;;;;;;;;;;;;8.03;81.33;102307.72;20808079;28;19933;-55
2023/04/20 06:41:29;;;;;;;;;;;;;;;8.13;82.67;102304.31;20806390;28;19933;-56
2023/04/20 06:51:51;;;;;;;;;;;;;;;8.17;82.16;102285.41;20803253;28;19983;-56
2023/04/20 07:02:13;;;;;;;;;;;;;;;8.26;82.13;102306.09;20805676;28;20434;-56
2023/04/20 07:12:36;;;;;;;;;;;;;;;8.29;80.49;102293.25;20796617;28;19925;-56
2023/04/20 07:22:58;;;;;;;;;;;;;;;8.18;82.51;102289.75;20805591;28;20031;-56
2023/04/20 07:33:23;;;;;;;;;;;;;;;8.23;80.62;102294.88;20802467;28;20337;-54
2023/04/20 07:43:44;;;;;;;;;;;;;;;8.25;83.27;102298.38;20777198;28;20332;-55
2023/04/20 07:54:06;;;;;;;;;;;;;;;8.26;81.22;102297.53;20785163;28;19983;-56
2023/04/20 08:04:28;;;;;;;;;;;;;;;8.30;82.92;102307.84;20797403;28;20399;-56
2023/04/20 08:14:50;;;;;;;;;;;;;;;8.37;85.25;102304.41;20802255;28;19936;-56
2023/04/20 08:25:12;;;;;;;;;;;;;;;8.48;81.95;102319.94;20792101;28;20607;-55
2023/04/20 08:35:33;;;;;;;;;;;;;;;8.68;82.21;102311.38;20783002;28;20319;-56
2023/04/20 08:45:59;;;;;;;;;;;;;;;8.71;81.57;102311.41;20807952;28;19952;-57
2023/04/20 08:56:32;;;;;;;;;;;;;;;8.73;82.29;102317.41;20804605;28;19948;-54
2023/04/20 09:06:54;;;;;;;;;;;;;;;8.75;82.84;102313.09;20820210;28;19983;-55
2023/04/20 09:17:29;;;;;;;;;;;;;;;8.81;79.71;102328.59;20804333;28;20407;-55
2023/04/20 09:27:57;;;;;;;;;;;;;;;8.86;81.53;102332.03;20832193;28;19986;-56
2023/04/20 09:38:25;;;;;;;;;;;;;;;8.96;81.30;102318.28;20823110;28;20568;-56
2023/04/20 09:48:46;;;;;;;;;;;;;;;9.07;80.56;102333.78;20812895;28;20035;-54
2023/04/20 09:59:07;;;;;;;;;;;;;;;9.01;82.03;102346.69;20811444;28;20300;-56
2023/04/20 10:09:30;;;;;;;;;;;;;;;8.99;81.02;102323.44;20801122;28;20381;-54
2023/04/20 10:19:51;;;;;;;;;;;;;;;9.01;82.25;102334.63;20809027;28;19948;-55
2023/04/20 10:30:13;;;;;;;;;;;;;;;9.02;81.67;102333.81;20805296;28;19928;-54
2023/04/20 10:40:35;;;;;;;;;;;;;;;9.10;83.82;102323.47;20802655;28;19940;-56
2023/04/20 10:50:56;;;;;;;;;;;;;;;9.57;83.42;102307.91;20803312;28;19929;-56
2023/04/20 11:01:18;;;;;;;;;;;;;;;10.09;79.63;102294.84;20795053;28;20549;-56
2023/04/20 11:11:39;;;;;;;;;;;;;;;10.33;77.50;102298.19;20801218;28;20004;-56
2023/04/20 11:22:02;;;;;;;;;;;;;;;10.42;76.12;102275.69;20793683;28;19925;-56
2023/04/20 11:32:23;;;;;;;;;;;;;;;10.67;76.27;102266.06;20805720;28;19932;-56
2023/04/20 11:42:45;;;;;;;;;;;;;;;10.88;73.88;102268.47;20803228;28;19925;-56
2023/04/20 11:53:08;;;;;;;;;;;;;;;10.88;74.35;102273.63;20801222;28;20292;-57
2023/04/20 12:03:31;;;;;;;;;;;;;;;11.26;71.76;102258.63;20796494;28;19929;-57
2023/04/20 12:13:53;;;;;;;;;;;;;;;11.61;70.98;102250.50;20797958;28;20015;-56
2023/04/20 12:24:14;;;;;;;;;;;;;;;12.09;71.16;102221.34;20798506;28;19929;-57
2023/04/20 12:34:36;;;;;;;;;;;;;;;12.29;68.39;102215.91;20791982;28;19991;-57
2023/04/20 12:44:57;;;;;;;;;;;;;;;12.45;68.37;102207.88;20787549;28;19933;-56
2023/04/20 12:55:19;;;;;;;;;;;;;;;12.28;68.30;102199.47;20794437;28;20359;-55
2023/04/20 13:05:41;;;;;;;;;;;;;;;12.40;68.19;102204.47;20800588;28;19926;-57
2023/04/20 13:16:02;;;;;;;;;;;;;;;12.76;66.91;102187.44;20789270;28;19929;-55
2023/04/20 13:26:24;;;;;;;;;;;;;;;12.68;67.49;102186.69;20779855;28;19979;-56
2023/04/20 13:36:45;;;;;;;;;;;;;;;12.54;67.08;102173.97;20796577;28;19933;-56
2023/04/20 13:47:07;;;;;;;;;;;;;;;12.52;67.13;102178.31;20797385;28;19925;-57
2023/04/20 13:57:30;;;;;;;;;;;;;;;12.55;68.02;102167.88;20794267;28;19940;-56
2023/04/20 14:07:51;;;;;;;;;;;;;;;12.40;68.90;102173.31;20808890;28;19933;-56
2023/04/20 14:18:13;;;;;;;;;;;;;;;12.22;68.87;102163.22;20806807;28;20373;-56
2023/04/20 14:28:34;;;;;;;;;;;;;;;12.16;68.56;102159.88;20806485;28;19925;-56
2023/04/20 14:38:56;;;;;;;;;;;;;;;11.99;69.63;102168.72;20801672;28;19974;-56
2023/04/20 14:49:17;;;;;;;;;;;;;;;12.05;69.95;102157.41;20794678;28;19929;-56
2023/04/20 14:59:40;;;;;;;;;;;;;;;12.11;70.06;102141.75;20802569;28;19929;-55
2023/04/20 15:10:01;;;;;;;;;;;;;;;12.03;70.21;102152.25;20802398;28;20011;-57
2023/04/20 15:20:23;;;;;;;;;;;;;;;11.85;70.21;102143.88;20792038;28;19935;-56
2023/04/20 15:30:44;;;;;;;;;;;;;;;11.74;72.21;102140.56;20783373;28;19933;-57
2023/04/20 15:41:06;;;;;;;;;;;;;;;11.50;72.39;102146.06;20785964;28;19932;-56
2023/04/20 15:51:27;;;;;;;;;;;;;;;11.26;74.30;102151.53;20796498;28;19955;-57
2023/04/20 16:01:49;;;;;;;;;;;;;;;11.03;77.38;102139.69;20776560;28;19998;-55
2023/04/20 16:12:10;;;;;;;;;;;;;;;10.98;76.15;102140.63;20805952;28;19929;-55
2023/04/20 16:22:32;;;;;;;;;;;;;;;10.97;76.69;102155.28;20790610;28;19940;-56
2023/04/20 16:32:53;;;;;;;;;;;;;;;10.94;78.54;102149.28;20782593;28;20676;-56
2023/04/20 16:43:15;;;;;;;;;;;;;;;10.93;78.73;102132.88;20777167;28;20027;-56
2023/04/20 16:53:36;;;;;;;;;;;;;;;10.87;79.70;102127.78;20804844;28;19990;-55
2023/04/20 17:04:01;;;;;;;;;;;;;;;10.89;77.90;102127.75;20773347;28;19929;-56
2023/04/20 17:14:22;;;;;;;;;;;;;;;10.91;79.03;102124.25;20826437;28;19960;-56
2023/04/20 17:24:44;;;;;;;;;;;;;;;10.93;77.80;102117.34;20806157;28;19979;-55
2023/04/20 17:35:05;;;;;;;;;;;;;;;10.93;78.25;102122.53;20804957;28;19933;-56
2023/04/20 17:45:27;;;;;;;;;;;;;;;10.95;77.92;102122.53;20803917;28;19929;-56
2023/04/20 17:55:48;;;;;;;;;;;;;;;10.98;78.41;102138.91;20813905;28;19979;-56
2023/04/20 18:06:10;;;;;;;;;;;;;;;10.97;78.04;102141.47;20802604;28;19971;-57
2023/04/20 18:16:32;;;;;;;;;;;;;;;10.96;76.72;102137.19;20798069;28;19925;-57
2023/04/20 18:26:53;;;;;;;;;;;;;;;10.94;82.37;102132.03;20784785;28;20422;-56
2023/04/20 18:37:15;;;;;;;;;;;;;;;10.87;78.96;102138.16;20792359;28;19991;-56
2023/04/20 18:47:36;;;;;;;;;;;;;;;10.91;78.79;102144.97;20787580;28;19933;-57
2023/04/20 18:57:58;;;;;;;;;;;;;;;10.91;78.29;102129.44;20805232;28;20007;-56
2023/04/20 19:08:21;;;;;;;;;;;;;;;10.94;78.78;102138.94;20798562;28;19929;-56
2023/04/20 19:18:43;;;;;;;;;;;;;;;10.94;78.26;102132.03;20781839;28;19925;-56
2023/04/20 19:29:04;;;;;;;;;;;;;;;10.90;82.84;102124.28;20798284;28;19925;-55
2023/04/20 19:39:27;;;;;;;;;;;;;;;10.81;78.84;102122.66;20783845;28;20011;-54
2023/04/20 19:49:49;;;;;;;;;;;;;;;10.77;80.82;102120.09;20795904;28;19983;-55
2023/04/20 20:00:10;;;;;;;;;;;;;;;10.73;82.32;102111.50;20790598;28;19929;-56
2023/04/20 20:10:32;;;;;;;;;;;;;;;10.70;80.92;102114.16;20797772;28;20020;-56
2023/04/20 20:20:53;;;;;;;;;;;;;;;10.65;80.61;102113.34;20796959;28;19952;-56
2023/04/20 20:31:15;;;;;;;;;;;;;;;10.54;81.09;102110.00;20798622;28;19925;-56
2023/04/20 20:41:41;;;;;;;;;;;;;;;10.50;82.74;102100.53;20785792;28;19938;-56
2023/04/20 20:52:02;;;;;;;;;;;;;;;10.49;81.94;102100.56;20781577;28;19979;-56
2023/04/20 21:02:24;;;;;;;;;;;;;;;10.47;83.61;102085.06;20797567;28;19979;-55
2023/04/20 21:12:46;;;;;;;;;;;;;;;10.39;84.29;102085.97;20786944;28;19929;-55
2023/04/20 21:23:07;;;;;;;;;;;;;;;10.31;83.99;102091.22;20791167;28;19925;-56
2023/04/20 21:33:28;;;;;;;;;;;;;;;10.31;83.92;102093.78;20795084;28;19986;-57
2023/04/20 21:43:50;;;;;;;;;;;;;;;10.27;82.62;102089.53;20791274;28;20426;-55
2023/04/20 21:54:12;;;;;;;;;;;;;;;10.30;83.25;102105.03;20800827;28;19975;-57
2023/04/20 22:04:33;;;;;;;;;;;;;;;10.35;82.46;102090.31;20806544;28;19929;-56
2023/04/20 22:14:55;;;;;;;;;;;;;;;10.36;80.67;102089.47;20804401;28;20012;-56
2023/04/20 22:25:16;;;;;;;;;;;;;;;10.32;80.73;102089.50;20804715;28;19929;-56
2023/04/20 22:35:38;;;;;;;;;;;;;;;10.26;80.75;102080.06;20800307;28;20320;-57
2023/04/20 22:45:59;;;;;;;;;;;;;;;10.25;79.78;102070.59;20797732;28;19925;-57
2023/04/20 22:56:21;;;;;;;;;;;;;;;10.23;81.44;102068.88;20802769;28;19951;-56
2023/04/20 23:06:42;;;;;;;;;;;;;;;10.16;80.60;102057.72;20792843;28;20276;-55
2023/04/20 23:17:05;;;;;;;;;;;;;;;10.05;83.23;102044.00;20797817;28;19929;-56
2023/04/20 23:27:26;;;;;;;;;;;;;;;9.97;79.97;102046.66;20798886;28;19937;-57
2023/04/20 23:37:47;;;;;;;;;;;;;;;9.90;80.54;102038.94;20797503;28;19978;-56
2023/04/20 23:48:09;;;;;;;;;;;;;;;9.80;81.68;102021.78;20794961;28;19972;-56
2023/04/20 23:58:31;;;;;;;;;;;;;;;9.70;80.12;102025.31;20797894;28;19949;-56
